LGKFLIBC

Guest
Details From LGKF - Kefallinia
To LIBC - CROTONE
Flight Number -
Tags generated
Created
Modified
Stats Distance 169 nm / 313 km
Max Altitude 16,900 ft / 5,151 m
Waypoints 3
Social Downloads 0
Likes 0
Share VATSIM

Download

Looking for another format? Having issues loading an existing format? Contact us
Advertisement - Login to hide

Notes

Basic altitude profile: - Ascent Rate: 2500ft/min - Ascent Speed: 250kts - Cruise Altitude: 35000ft - Cruise Speed: 420kts - Descent Rate: 1500ft/min - Descent Speed: 250kts Options: - Use NATs: yes - Use PACOTS: yes - Use low airways: yes - Use high airways: yes

Route

LGKF TESPA LIBC

ID Type Via Altitude Latitude Longitude Leg Dist Tot Dist Heading (true) Name
O LGKF APT - 0 ft / 0 m 38.12007˚ 20.50048˚ - 0 nm - Kefallinia
TESPA FIX - 16,900 ft / 5,151 m 38.57583˚ 18.78361˚ 85 nm 85 nm 289° / 288° -
O LIBC APT - 0 ft / 0 m 38.99722˚ 17.08017˚ 83 nm 169 nm 288° / 287° CROTONE

Altitude Profile

Advertisement - Login to hide

Weather


0- 5 10 15 20 25 30 35+ Temperature / ° C

Clouds and Precipitation
Forecast for 2017-12-16 12:00 UTC. Updated 19 minutes ago

Ground ~20,000 ft ~40,000 ft Winds

LGKF

Details ICAO LGKF (EFL)
Name Kefallinia
Region Greece
Timezone Europe/Athens (UTC+2.0)
Stats Elevation 59 ft / 18 m (AMSL)
Location 38.120069° 20.500480°
Runways 1
Magnetic Variation 4.052° E

METAR

LGKF 161050Z 11007KT 7000 RA SCT012 BKN018 OVC070 15/11 Q1011

Decode

TAF

Not found

Departure Runways

ID Width Length Bearing (true) Bearing (mag) Surface Threshold Offset Overrun Length
14 148 ft / 45 m 7,979 ft / 2,432 m 146.39° 142.34° Asphalt 0 ft / 0 m 180 ft / 55 m
32 148 ft / 45 m 7,979 ft / 2,432 m 326.40° 322.35° Asphalt 912 ft / 278 m 100 ft / 30 m

LIBC

Details ICAO LIBC (CRV)
Name CROTONE
Region Italy
Timezone Europe/Rome (UTC+1.0)
Stats Elevation 521 ft / 159 m (AMSL)
Location 38.997223° 17.080170°
Runways 1
Magnetic Variation 3.629° E

METAR

LIBC 161050Z 22010KT 9999 SCT060 15/10 Q1007

Decode

TAF

TAF LIBC 160855Z 1609/1706 22018KT 9999 SCT030 BECMG 1616/1618 28018G28KT TEMPO 1618/1706 SHRA

Decode

Destination Runways

ID Width Length Bearing (true) Bearing (mag) Surface Threshold Offset Overrun Length
17 148 ft / 45 m 6,572 ft / 2,003 m 168.92° 165.29° Asphalt 525 ft / 160 m 0 ft / 0 m
35 148 ft / 45 m 6,572 ft / 2,003 m 348.92° 345.29° Asphalt 0 ft / 0 m 0 ft / 0 m

Popular Alternatives